Time;durP1;ratioP1;P1;durP2;ratioP2;P2;SDS_P1;SDS_P2;PMS_P1;PMS_P2;Temp;Humidity;BMP_temperature;BMP_pressure;BME280_temperature;BME280_humidity;BME280_pressure;Samples;Min_cycle;Max_cycle;Signal;HPM_P1;HPM_P2
2021/07/30 00:01:38;;;;;;;2.67;2.47;;;;;;;17.38;80.93;98370.47;4963459;28;102713;-59
2021/07/30 00:04:07;;;;;;;2.80;2.60;;;;;;;17.35;80.64;98373.47;4979127;28;103877;-60
2021/07/30 00:06:35;;;;;;;3.03;2.83;;;;;;;17.31;80.80;98377.47;4979309;28;104156;-59
2021/07/30 00:09:03;;;;;;;2.83;2.60;;;;;;;17.28;81.28;98377.78;4977134;28;102574;-60
2021/07/30 00:11:31;;;;;;;3.45;3.15;;;;;;;17.11;82.51;98374.22;4964007;28;102660;-60
2021/07/30 00:14:00;;;;;;;4.22;3.42;;;;;;;16.98;83.37;98373.78;4979547;28;103300;-59
2021/07/30 00:16:29;;;;;;;3.20;3.00;;;;;;;16.95;83.52;98365.31;4976809;28;103160;-59
2021/07/30 00:18:57;;;;;;;3.17;2.88;;;;;;;16.91;83.71;98369.25;4975416;28;103858;-60
2021/07/30 00:21:25;;;;;;;4.35;3.95;;;;;;;16.71;84.95;98374.81;4961238;28;102761;-59
2021/07/30 00:23:53;;;;;;;3.42;3.15;;;;;;;16.71;84.88;98363.31;4979782;28;104413;-59
2021/07/30 00:26:21;;;;;;;3.92;3.63;;;;;;;16.70;84.67;98367.81;4978393;28;103226;-60
2021/07/30 00:28:49;;;;;;;4.57;4.10;;;;;;;16.59;85.33;98370.72;4975205;28;102707;-59
2021/07/30 00:31:18;;;;;;;3.88;3.53;;;;;;;16.54;85.82;98367.69;4980124;28;103784;-59
2021/07/30 00:33:46;;;;;;;4.20;3.50;;;;;;;16.52;85.64;98361.66;4977144;28;103382;-60
2021/07/30 00:36:14;;;;;;;3.15;2.90;;;;;;;16.52;85.81;98356.34;4960145;28;103459;-60
2021/07/30 00:38:42;;;;;;;2.95;2.75;;;;;;;16.49;86.01;98364.66;4978888;28;102587;-60
2021/07/30 00:41:11;;;;;;;3.38;3.08;;;;;;;16.42;86.39;98357.44;4962177;28;102711;-60
2021/07/30 00:43:39;;;;;;;6.53;3.97;;;;;;;16.40;86.11;98360.22;4976636;28;103456;-60
2021/07/30 00:46:07;;;;;;;5.07;3.72;;;;;;;16.34;86.48;98363.50;4959931;28;103117;-60
2021/07/30 00:48:38;;;;;;;5.25;4.43;;;;;;;16.29;86.44;98367.63;4978567;28;102636;-60
2021/07/30 00:51:07;;;;;;;4.03;3.50;;;;;;;16.31;86.13;98371.00;4961821;28;102896;-60
2021/07/30 00:53:35;;;;;;;3.45;3.15;;;;;;;16.28;86.33;98369.47;4977112;28;103333;-60
2021/07/30 00:56:03;;;;;;;3.50;3.20;;;;;;;16.32;85.67;98365.50;4977434;28;103135;-60
2021/07/30 00:58:32;;;;;;;3.65;3.35;;;;;;;16.28;85.99;98364.13;4977378;28;102607;-60
2021/07/30 01:01:01;;;;;;;4.30;4.00;;;;;;;16.12;87.01;98361.34;4961817;28;102723;-60
2021/07/30 01:03:31;;;;;;;4.15;3.45;;;;;;;16.07;87.58;98352.97;4975333;28;103289;-61
2021/07/30 01:06:01;;;;;;;4.05;3.47;;;;;;;16.02;88.16;98357.94;4977763;28;103315;-61
2021/07/30 01:08:29;;;;;;;3.42;3.17;;;;;;;16.10;86.58;98358.84;4978609;28;102888;-61
2021/07/30 01:10:57;;;;;;;3.78;3.22;;;;;;;16.17;85.80;98353.72;4979980;28;102980;-61
2021/07/30 01:13:25;;;;;;;4.35;3.83;;;;;;;16.06;87.06;98361.94;4976419;28;103223;-61
2021/07/30 01:15:53;;;;;;;4.65;3.72;;;;;;;15.95;87.54;98359.50;4978382;28;103190;-61
2021/07/30 01:18:21;;;;;;;4.00;3.60;;;;;;;15.73;89.24;98360.81;4960089;28;103308;-60
2021/07/30 01:21:12;;;;;;;3.83;3.40;;;;;;;15.75;89.18;98363.34;4975872;28;102804;-60
2021/07/30 01:23:41;;;;;;;4.10;3.70;;;;;;;15.68;89.08;98365.75;4976469;28;103362;-60
2021/07/30 01:26:09;;;;;;;4.65;3.20;;;;;;;15.68;88.72;98360.44;4959154;28;103899;-60
2021/07/30 01:28:37;;;;;;;3.55;3.20;;;;;;;15.80;87.68;98358.38;4978368;28;102680;-60
2021/07/30 01:31:06;;;;;;;3.65;2.92;;;;;;;15.88;87.47;98353.13;4977951;28;102911;-60
2021/07/30 01:33:34;;;;;;;3.95;3.50;;;;;;;15.84;86.98;98352.59;4976511;28;103263;-60
2021/07/30 01:36:02;;;;;;;4.38;3.97;;;;;;;15.78;87.15;98357.69;4977867;28;103611;-60
2021/07/30 01:38:30;;;;;;;3.70;3.40;;;;;;;15.74;87.33;98361.66;4943868;28;102665;-60
2021/07/30 01:41:09;;;;;;;3.92;3.63;;;;;;;15.71;87.40;98367.28;4978108;28;102728;-60
2021/07/30 01:43:38;;;;;;;3.15;2.85;;;;;;;15.73;87.07;98360.81;4975199;28;103277;-60
2021/07/30 01:46:06;;;;;;;3.08;2.88;;;;;;;15.74;86.91;98359.00;4959119;28;103051;-60
2021/07/30 01:48:34;;;;;;;4.10;3.70;;;;;;;15.70;87.22;98360.25;4977291;28;103156;-60
2021/07/30 01:51:03;;;;;;;4.75;4.18;;;;;;;15.51;88.73;98356.75;4976064;28;102591;-60
2021/07/30 01:53:31;;;;;;;3.97;3.60;;;;;;;15.49;88.71;98358.75;4976821;28;104373;-60
2021/07/30 01:56:04;;;;;;;3.47;3.17;;;;;;;15.51;88.64;98355.91;4961020;28;103232;-60
2021/07/30 01:58:33;;;;;;;4.15;3.75;;;;;;;15.41;89.60;98355.94;4956568;28;102951;-59
2021/07/30 02:01:02;;;;;;;4.43;3.55;;;;;;;15.34;89.71;98360.19;4977261;28;102708;-59
2021/07/30 02:03:30;;;;;;;4.45;3.97;;;;;;;15.39;89.19;98363.22;4972783;28;103281;-58
2021/07/30 02:05:58;;;;;;;4.78;4.20;;;;;;;15.32;89.82;98351.53;4977720;28;103163;-59
2021/07/30 02:08:26;;;;;;;4.70;4.07;;;;;;;15.40;89.66;98358.75;4975594;28;102585;-59
2021/07/30 02:10:54;;;;;;;4.10;3.80;;;;;;;15.47;89.23;98350.03;4978393;28;102681;-59
2021/07/30 02:16:09;;;;;;;3.60;3.30;;;;;;;15.45;89.15;98353.81;4976765;28;103096;-59
2021/07/30 02:18:37;;;;;;;4.53;4.13;;;;;;;15.45;88.66;98351.16;4975164;28;103167;-60
2021/07/30 02:21:05;;;;;;;4.53;4.13;;;;;;;15.47;88.66;98355.38;4958247;28;102759;-60
2021/07/30 02:23:33;;;;;;;3.37;3.07;;;;;;;15.52;87.64;98357.59;4979131;28;103463;-59
2021/07/30 02:26:01;;;;;;;4.07;3.10;;;;;;;15.49;87.61;98345.44;4978861;28;104399;-59
2021/07/30 02:28:30;;;;;;;5.43;4.67;;;;;;;15.19;90.29;98345.69;4976729;28;102745;-59
2021/07/30 02:30:58;;;;;;;4.88;4.32;;;;;;;15.23;91.11;98349.75;4978690;28;102746;-59
2021/07/30 02:33:26;;;;;;;7.15;5.85;;;;;;;15.15;92.65;98351.47;4979359;28;106834;-59
2021/07/30 02:35:54;;;;;;;6.82;6.22;;;;;;;14.97;95.18;98346.09;4975747;28;109732;-59
2021/07/30 02:38:22;;;;;;;5.87;5.30;;;;;;;15.01;95.40;98340.34;4977413;28;102822;-59
2021/07/30 02:40:50;;;;;;;7.03;6.33;;;;;;;15.08;95.96;98343.22;4977449;28;102753;-59
2021/07/30 02:43:18;;;;;;;7.03;6.33;;;;;;;15.04;95.98;98341.88;4973888;28;103404;-59
2021/07/30 02:45:48;;;;;;;6.70;6.10;;;;;;;15.18;96.41;98341.38;4960104;28;104412;-59
2021/07/30 02:48:16;;;;;;;5.73;5.13;;;;;;;15.27;95.44;98343.13;4976134;28;102659;-59
2021/07/30 02:50:44;;;;;;;5.23;4.80;;;;;;;15.34;93.95;98344.22;4977895;28;102668;-59
2021/07/30 02:53:12;;;;;;;6.70;5.47;;;;;;;15.37;92.61;98335.09;4977093;28;103928;-59
2021/07/30 02:55:40;;;;;;;5.63;4.63;;;;;;;15.37;91.26;98337.75;4958362;28;104713;-59
2021/07/30 02:58:10;;;;;;;5.40;4.93;;;;;;;15.31;92.04;98333.03;4959099;28;102655;-59
2021/07/30 03:00:38;;;;;;;8.97;6.03;;;;;;;15.09;94.19;98328.97;4981250;28;102646;-59
2021/07/30 03:03:08;;;;;;;7.00;6.30;;;;;;;14.97;94.99;98338.09;4976908;28;104354;-59
2021/07/30 03:05:36;;;;;;;7.10;6.40;;;;;;;14.92;95.35;98332.41;4975074;28;103324;-59
2021/07/30 03:08:07;;;;;;;8.87;6.77;;;;;;;14.92;94.66;98335.91;4976811;28;102792;-58
2021/07/30 03:10:35;;;;;;;8.13;6.73;;;;;;;14.89;95.06;98332.69;4956756;28;102688;-58
2021/07/30 03:13:03;;;;;;;7.47;6.70;;;;;;;14.90;95.55;98329.91;4957779;28;105205;-59
2021/07/30 03:15:31;;;;;;;7.93;7.13;;;;;;;14.86;95.76;98328.50;4977299;28;103913;-58
2021/07/30 03:17:59;;;;;;;6.53;5.90;;;;;;;14.91;95.58;98331.53;4978064;28;102763;-58
2021/07/30 03:20:29;;;;;;;9.20;7.57;;;;;;;14.70;96.34;98322.13;4961415;28;102719;-58
2021/07/30 03:22:57;;;;;;;8.00;7.20;;;;;;;14.66;97.06;98326.03;4976877;28;103482;-59
2021/07/30 03:25:25;;;;;;;8.07;7.37;;;;;;;14.49;98.40;98315.19;4980889;28;103299;-58
2021/07/30 03:27:53;;;;;;;7.93;7.23;;;;;;;14.41;98.83;98319.56;4978551;28;102831;-59
2021/07/30 03:30:21;;;;;;;10.57;8.83;;;;;;;14.37;98.74;98321.66;4979974;28;102854;-58
2021/07/30 03:32:49;;;;;;;8.30;7.53;;;;;;;14.37;99.18;98316.34;4980131;28;103357;-59
2021/07/30 03:35:17;;;;;;;8.10;7.07;;;;;;;14.43;98.06;98321.06;4977922;28;104547;-59
2021/07/30 03:37:46;;;;;;;7.13;6.47;;;;;;;14.56;97.54;98311.97;4958294;28;104135;-59
2021/07/30 03:40:15;;;;;;;7.10;6.40;;;;;;;14.62;96.35;98314.88;4978979;28;102861;-58
2021/07/30 03:42:43;;;;;;;7.50;6.77;;;;;;;14.56;95.72;98309.31;4981236;28;103313;-59
2021/07/30 03:45:11;;;;;;;8.03;6.40;;;;;;;14.52;95.97;98309.59;4961723;28;103655;-58
2021/07/30 03:47:39;;;;;;;7.03;6.33;;;;;;;14.43;96.25;98310.44;4979387;28;102597;-60
2021/07/30 03:50:08;;;;;;;7.57;6.77;;;;;;;14.23;96.92;98311.44;4965805;28;102799;-58
2021/07/30 03:52:36;;;;;;;6.00;5.43;;;;;;;14.22;98.34;98301.81;4960668;28;103767;-59
2021/07/30 03:55:07;;;;;;;7.40;6.17;;;;;;;14.31;97.00;98303.63;4978367;28;103216;-59
2021/07/30 03:57:35;;;;;;;6.67;6.03;;;;;;;14.35;96.80;98310.34;4980487;28;102602;-59
2021/07/30 04:00:04;;;;;;;5.80;5.30;;;;;;;14.45;95.77;98313.81;4983290;28;102724;-59
2021/07/30 04:02:34;;;;;;;5.83;5.23;;;;;;;14.43;95.25;98305.13;4981676;28;103414;-58
2021/07/30 04:05:03;;;;;;;5.40;4.90;;;;;;;14.46;94.76;98310.16;4984338;28;103225;-59
2021/07/30 04:07:31;;;;;;;9.83;6.30;;;;;;;14.28;95.79;98303.91;4983325;28;102681;-59
2021/07/30 04:09:59;;;;;;;5.80;5.17;;;;;;;14.30;96.11;98303.75;4986217;28;102675;-59
2021/07/30 04:12:29;;;;;;;6.60;6.00;;;;;;;14.34;95.88;98302.53;4979595;28;103382;-59
2021/07/30 04:14:57;;;;;;;8.80;6.40;;;;;;;14.22;96.54;98299.16;4978181;28;103271;-59
2021/07/30 04:17:25;;;;;;;6.93;5.40;;;;;;;14.26;96.76;98302.38;4961129;28;102724;-59
2021/07/30 04:19:53;;;;;;;5.27;4.80;;;;;;;14.29;96.93;98297.59;4980307;28;102732;-60
2021/07/30 04:22:21;;;;;;;6.30;5.70;;;;;;;14.36;97.03;98303.22;4982492;28;103352;-60
2021/07/30 04:24:49;;;;;;;7.17;6.57;;;;;;;14.34;97.03;98305.19;4977552;28;103460;-59
2021/07/30 04:27:18;;;;;;;6.73;6.13;;;;;;;14.25;98.20;98306.00;4984648;28;102661;-59
2021/07/30 04:29:47;;;;;;;5.43;4.93;;;;;;;14.16;100.00;98304.19;4963722;28;102891;-59
2021/07/30 04:32:15;;;;;;;6.50;5.17;;;;;;;14.20;100.00;98306.44;4970180;28;103411;-59
2021/07/30 04:34:44;;;;;;;5.23;4.73;;;;;;;14.39;99.30;98305.56;4981223;28;104300;-59
2021/07/30 04:37:12;;;;;;;5.17;4.67;;;;;;;14.54;97.79;98305.97;4979708;28;102745;-59
2021/07/30 04:39:40;;;;;;;8.87;5.97;;;;;;;14.46;98.24;98307.50;4982319;28;102620;-59
2021/07/30 04:42:08;;;;;;;7.30;6.17;;;;;;;14.51;98.36;98307.91;4960074;28;103471;-59
2021/07/30 04:44:36;;;;;;;6.87;6.17;;;;;;;14.67;97.91;98302.00;4972005;28;103045;-59
2021/07/30 04:47:06;;;;;;;6.07;5.47;;;;;;;14.80;97.16;98305.16;4971701;28;102578;-59
2021/07/30 04:49:34;;;;;;;7.43;6.73;;;;;;;14.88;97.02;98299.09;4961126;28;102769;-59
2021/07/30 04:52:02;;;;;;;6.47;5.87;;;;;;;15.03;96.48;98302.94;4979757;28;104530;-59
2021/07/30 04:54:30;;;;;;;6.40;5.77;;;;;;;15.13;95.78;98301.06;4975301;28;103134;-59
2021/07/30 04:56:58;;;;;;;5.87;5.37;;;;;;;15.25;95.49;98294.53;4976729;28;103717;-59
2021/07/30 04:59:26;;;;;;;5.63;4.77;;;;;;;15.35;94.81;98298.00;4948670;28;102803;-59
2021/07/30 05:01:55;;;;;;;4.63;4.20;;;;;;;15.44;95.08;98297.06;4976880;28;104795;-58
2021/07/30 05:04:28;;;;;;;6.63;5.93;;;;;;;15.54;94.18;98303.22;4973836;28;103187;-59
2021/07/30 05:06:57;;;;;;;5.43;4.93;;;;;;;15.66;94.35;98301.97;4976185;28;102787;-59
2021/07/30 05:09:25;;;;;;;6.03;5.10;;;;;;;15.79;93.48;98295.44;4956692;28;102827;-59
2021/07/30 05:11:53;;;;;;;8.10;7.30;;;;;;;15.76;94.79;98295.75;4977761;28;103563;-60
2021/07/30 05:14:21;;;;;;;7.20;6.50;;;;;;;15.85;94.22;98300.16;4972734;28;103208;-59
2021/07/30 05:16:49;;;;;;;6.87;6.17;;;;;;;15.90;94.22;98287.22;4969536;28;102750;-59
2021/07/30 05:19:18;;;;;;;7.10;6.23;;;;;;;16.06;93.78;98292.66;4954766;28;102792;-59
2021/07/30 05:21:47;;;;;;;8.37;7.30;;;;;;;16.09;94.16;98287.88;4973913;28;103872;-59
2021/07/30 05:24:15;;;;;;;8.88;5.63;;;;;;;16.08;93.62;98288.03;4974831;28;103371;-59
2021/07/30 05:26:43;;;;;;;6.63;5.83;;;;;;;16.31;93.08;98291.84;4975946;28;102659;-58
2021/07/30 05:29:11;;;;;;;9.57;8.07;;;;;;;16.37;92.87;98285.06;4976889;28;102638;-59
2021/07/30 05:31:39;;;;;;;7.93;7.13;;;;;;;16.45;92.00;98288.63;4976520;28;103700;-59
2021/07/30 05:34:07;;;;;;;7.07;6.47;;;;;;;16.49;92.43;98286.47;4974912;28;103765;-59
2021/07/30 05:36:35;;;;;;;10.48;7.65;;;;;;;16.54;92.20;98293.03;4971375;28;102862;-59
2021/07/30 05:39:05;;;;;;;7.47;6.40;;;;;;;16.66;91.37;98294.44;4952098;28;103193;-59
2021/07/30 05:41:33;;;;;;;8.00;6.30;;;;;;;16.75;90.33;98296.19;4969156;28;104454;-59
2021/07/30 05:44:01;;;;;;;7.72;7.00;;;;;;;16.74;91.83;98293.66;4973925;28;104346;-59
2021/07/30 05:46:29;;;;;;;9.10;7.50;;;;;;;16.76;90.72;98299.66;4951305;28;102800;-59
2021/07/30 05:49:00;;;;;;;7.43;5.65;;;;;;;16.98;90.73;98292.94;4972050;28;102649;-60
2021/07/30 05:51:29;;;;;;;8.10;6.40;;;;;;;17.11;90.18;98291.50;4971177;28;103746;-59
2021/07/30 05:53:57;;;;;;;9.82;7.05;;;;;;;17.03;90.16;98290.63;4970771;28;103612;-60
2021/07/30 05:56:26;;;;;;;7.28;6.55;;;;;;;17.14;89.37;98285.81;4969345;28;103046;-60
2021/07/30 05:58:54;;;;;;;9.48;8.18;;;;;;;17.07;89.47;98289.28;4971613;28;102689;-59
2021/07/30 06:01:24;;;;;;;11.75;8.30;;;;;;;17.08;89.09;98290.97;4968654;28;103326;-59
2021/07/30 06:03:53;;;;;;;9.65;7.25;;;;;;;17.26;88.38;98292.50;4970555;28;104324;-59
2021/07/30 06:06:21;;;;;;;9.38;7.82;;;;;;;17.27;87.71;98288.03;4972061;28;102658;-60
2021/07/30 06:08:49;;;;;;;8.27;7.47;;;;;;;17.39;87.81;98279.56;4973008;28;102818;-59
2021/07/30 06:11:21;;;;;;;9.48;7.22;;;;;;;17.53;88.06;98280.75;4974462;28;104106;-59
2021/07/30 06:13:50;;;;;;;9.68;7.72;;;;;;;17.74;88.04;98283.00;4970103;28;103289;-60
2021/07/30 06:16:18;;;;;;;7.43;6.10;;;;;;;17.92;86.48;98279.16;4969106;28;102981;-58
2021/07/30 06:19:02;;;;;;;7.38;6.43;;;;;;;17.90;86.81;98278.47;4972241;28;102623;-58
2021/07/30 06:21:32;;;;;;;7.80;6.18;;;;;;;18.04;86.37;98282.31;4971208;28;103776;-59
2021/07/30 06:24:01;;;;;;;10.90;7.45;;;;;;;18.16;85.05;98274.81;4970259;28;103171;-58
2021/07/30 06:26:29;;;;;;;6.43;5.82;;;;;;;18.29;84.82;98272.44;4966372;28;102676;-59
2021/07/30 06:28:58;;;;;;;7.85;7.13;;;;;;;18.18;83.85;98270.13;4976042;28;102704;-59
2021/07/30 06:31:26;;;;;;;8.15;6.75;;;;;;;18.45;83.98;98275.91;4940847;28;104762;-59
2021/07/30 06:33:54;;;;;;;6.80;5.40;;;;;;;18.68;82.60;98272.53;4968617;28;103308;-59
2021/07/30 06:36:23;;;;;;;7.90;6.25;;;;;;;18.79;82.00;98272.16;4955219;28;102699;-59
2021/07/30 06:38:51;;;;;;;8.40;6.80;;;;;;;18.91;81.59;98274.31;4958184;28;102796;-60
2021/07/30 06:41:19;;;;;;;5.45;5.00;;;;;;;19.01;81.48;98274.94;4961069;28;103342;-59
2021/07/30 06:43:47;;;;;;;7.70;6.18;;;;;;;18.92;81.87;98275.13;4956955;28;103097;-60
2021/07/30 06:46:17;;;;;;;7.25;6.50;;;;;;;19.13;80.25;98263.84;4957323;28;102771;-60
2021/07/30 06:48:45;;;;;;;6.50;5.57;;;;;;;19.30;79.85;98257.38;4975079;28;102898;-60
2021/07/30 06:51:14;;;;;;;6.13;5.53;;;;;;;19.52;80.07;98257.44;4978947;28;103206;-60
2021/07/30 06:53:42;;;;;;;8.18;6.68;;;;;;;19.47;79.98;98253.63;4961048;28;103235;-60
2021/07/30 06:56:11;;;;;;;6.55;5.80;;;;;;;19.57;78.78;98259.59;4979738;28;102895;-61
2021/07/30 06:58:44;;;;;;;5.78;5.15;;;;;;;19.66;78.40;98254.00;4960636;28;102695;-61
2021/07/30 07:01:13;;;;;;;7.70;6.60;;;;;;;19.74;77.74;98244.22;4977335;28;103429;-64
2021/07/30 07:03:43;;;;;;;9.57;6.03;;;;;;;19.93;77.05;98249.91;4978492;28;103067;-64
2021/07/30 07:06:16;;;;;;;6.93;5.82;;;;;;;20.08;76.14;98248.13;4978236;28;102987;-64
2021/07/30 07:08:45;;;;;;;9.30;5.75;;;;;;;20.19;76.08;98250.38;4980369;28;102819;-64
2021/07/30 07:11:13;;;;;;;7.90;6.03;;;;;;;20.29;76.20;98244.78;4974934;28;104658;-64
2021/07/30 07:13:42;;;;;;;6.53;5.82;;;;;;;20.23;75.53;98249.00;4961128;28;103279;-64
2021/07/30 07:16:11;;;;;;;7.97;5.70;;;;;;;20.42;75.30;98236.94;4960303;28;102674;-64
2021/07/30 07:18:40;;;;;;;5.75;5.25;;;;;;;20.70;74.40;98234.44;4961047;28;103875;-61
2021/07/30 07:21:13;;;;;;;8.40;4.72;;;;;;;20.71;73.64;98230.75;4960508;28;103408;-61
2021/07/30 07:23:41;;;;;;;7.10;5.57;;;;;;;20.82;73.20;98235.66;4958358;28;103280;-63
2021/07/30 07:26:10;;;;;;;5.22;4.72;;;;;;;21.02;73.10;98235.91;4960981;28;103861;-63
2021/07/30 07:28:38;;;;;;;8.63;5.20;;;;;;;21.17;72.22;98228.66;4961323;28;102675;-63
2021/07/30 07:31:06;;;;;;;4.85;4.45;;;;;;;21.43;71.99;98228.97;4960372;28;104590;-63
2021/07/30 07:33:34;;;;;;;7.82;5.10;;;;;;;21.47;72.55;98234.81;4954438;28;104275;-64
2021/07/30 07:36:02;;;;;;;7.80;5.32;;;;;;;21.52;69.34;98232.38;4958770;28;102758;-64
2021/07/30 07:38:32;;;;;;;5.40;4.18;;;;;;;22.00;68.03;98231.63;4960511;28;102659;-63
2021/07/30 07:41:01;;;;;;;8.85;4.85;;;;;;;22.14;68.40;98227.19;4959249;28;104414;-63
2021/07/30 07:43:29;;;;;;;8.02;5.20;;;;;;;22.12;68.48;98227.34;4938902;28;105618;-63
2021/07/30 07:45:58;;;;;;;6.38;4.88;;;;;;;22.16;67.77;98231.34;4957531;28;103120;-64
2021/07/30 07:48:28;;;;;;;6.50;5.07;;;;;;;22.87;66.25;98218.56;4960319;28;102626;-64
2021/07/30 07:50:56;;;;;;;5.47;4.45;;;;;;;23.24;65.66;98219.97;4959203;28;103921;-64
2021/07/30 07:53:24;;;;;;;10.75;5.70;;;;;;;23.13;65.25;98221.34;4951449;28;104276;-64
2021/07/30 07:56:01;;;;;;;7.07;5.30;;;;;;;22.92;66.57;98222.31;4959140;28;102628;-64
2021/07/30 07:58:31;;;;;;;8.70;4.75;;;;;;;23.58;64.28;98217.16;4961248;28;102567;-64
2021/07/30 08:00:59;;;;;;;6.55;4.80;;;;;;;24.11;63.32;98212.69;4959019;28;103250;-63
2021/07/30 08:03:28;;;;;;;5.20;4.03;;;;;;;24.15;63.58;98219.31;4960920;28;103144;-64
2021/07/30 08:05:56;;;;;;;8.02;5.25;;;;;;;24.39;61.73;98216.00;4957654;28;102733;-65
2021/07/30 08:08:24;;;;;;;4.78;4.28;;;;;;;24.81;61.35;98214.69;4958762;28;102698;-63
2021/07/30 08:10:52;;;;;;;6.95;5.28;;;;;;;24.92;59.21;98215.91;4940216;28;103499;-63
2021/07/30 08:13:22;;;;;;;7.35;5.40;;;;;;;25.05;59.34;98221.25;4959873;28;103369;-63
2021/07/30 08:15:50;;;;;;;6.20;5.20;;;;;;;25.28;59.12;98210.75;4975477;28;102829;-64
2021/07/30 08:18:18;;;;;;;5.15;4.75;;;;;;;25.76;57.43;98213.81;4963831;28;102698;-64
2021/07/30 08:20:46;;;;;;;7.35;4.60;;;;;;;25.57;57.38;98212.88;4978469;28;109009;-64
2021/07/30 08:23:14;;;;;;;5.10;4.60;;;;;;;26.07;58.41;98207.53;4980178;28;103166;-63
2021/07/30 08:25:42;;;;;;;5.28;4.40;;;;;;;26.53;56.74;98205.25;4982421;28;102625;-62
2021/07/30 08:28:10;;;;;;;9.95;4.80;;;;;;;26.82;56.16;98201.84;4977717;28;102650;-63
2021/07/30 08:30:42;;;;;;;6.65;4.10;;;;;;;27.05;54.94;98204.72;4963178;28;104558;-63
2021/07/30 08:33:10;;;;;;;6.53;4.63;;;;;;;25.98;56.56;98200.75;4978714;28;103441;-63
2021/07/30 08:35:38;;;;;;;4.50;4.07;;;;;;;27.13;54.69;98205.44;4976320;28;102713;-63
2021/07/30 08:38:07;;;;;;;5.03;4.55;;;;;;;27.96;53.51;98201.75;4978927;28;102744;-63
2021/07/30 08:40:38;;;;;;;8.65;4.88;;;;;;;27.98;53.33;98199.66;4975197;28;102976;-64
2021/07/30 08:43:06;;;;;;;5.35;4.82;;;;;;;27.12;53.06;98198.38;4974098;28;103859;-63
2021/07/30 08:45:34;;;;;;;6.30;4.93;;;;;;;27.96;51.86;98195.50;4956068;28;102768;-64
2021/07/30 08:48:04;;;;;;;4.95;4.38;;;;;;;28.71;51.99;98186.50;4978509;28;102685;-63
2021/07/30 08:50:33;;;;;;;4.63;4.22;;;;;;;28.72;51.10;98190.03;4957850;28;103506;-63
2021/07/30 08:53:05;;;;;;;5.25;4.35;;;;;;;28.26;50.51;98190.03;4975304;28;103783;-63
2021/07/30 08:55:33;;;;;;;7.80;4.38;;;;;;;28.62;50.41;98187.91;4975091;28;103212;-64
2021/07/30 08:58:01;;;;;;;5.68;3.70;;;;;;;29.59;45.71;98174.38;4977838;28;102667;-63
2021/07/30 09:00:30;;;;;;;4.43;3.78;;;;;;;29.65;46.17;98178.88;4977605;28;103405;-63
2021/07/30 09:03:01;;;;;;;4.28;3.97;;;;;;;29.60;47.50;98184.22;4957200;28;103263;-63
2021/07/30 09:05:32;;;;;;;4.32;3.83;;;;;;;30.08;45.39;98179.09;4977478;28;102634;-64
2021/07/30 09:08:02;;;;;;;6.03;4.35;;;;;;;28.45;45.97;98180.69;4955012;28;102910;-65
2021/07/30 09:10:36;;;;;;;5.28;3.90;;;;;;;29.33;45.48;98171.19;4975854;28;104851;-64
2021/07/30 09:13:13;;;;;;;5.28;4.70;;;;;;;28.96;44.85;98174.50;4977708;28;103199;-65
2021/07/30 10:08:05;;;;;;;8.25;5.00;;;;;;;30.78;43.75;98118.56;4917526;23;103409;-63
2021/07/30 10:10:34;;;;;;;5.05;4.65;;;;;;;30.95;43.17;98119.34;5017126;27;103735;-64
2021/07/30 10:13:18;;;;;;;5.38;4.78;;;;;;;30.09;44.18;98120.03;5018500;27;102689;-65
2021/07/30 10:15:50;;;;;;;4.03;3.72;;;;;;;29.99;45.36;98115.22;5019648;27;103813;-67
2021/07/30 10:18:20;;;;;;;5.43;4.13;;;;;;;30.37;45.45;98111.75;5017119;28;103334;-67
2021/07/30 10:20:50;;;;;;;4.82;4.15;;;;;;;30.50;45.66;98108.66;5014274;28;103095;-66
2021/07/30 10:23:23;;;;;;;4.82;3.85;;;;;;;30.61;44.69;98101.44;5014367;28;102643;-66
2021/07/30 10:25:55;;;;;;;5.70;4.75;;;;;;;29.77;44.86;98108.84;5018530;28;103639;-67
2021/07/30 10:28:27;;;;;;;4.13;3.72;;;;;;;29.50;45.78;98100.53;5022987;27;103368;-67
2021/07/30 10:30:57;;;;;;;4.25;3.95;;;;;;;29.76;44.61;98099.03;5018723;28;102594;-67
2021/07/30 10:33:51;;;;;;;5.15;4.75;;;;;;;28.30;47.70;98107.00;5017442;28;102712;-67
2021/07/30 10:36:39;;;;;;;4.80;4.40;;;;;;;28.60;47.56;98102.25;5005075;28;103439;-66
2021/07/30 10:39:16;;;;;;;4.88;4.47;;;;;;;28.58;49.12;98101.66;5018153;28;103310;-67
2021/07/30 10:42:09;;;;;;;4.78;4.38;;;;;;;28.77;45.95;98095.84;5021815;27;102627;-67
2021/07/30 10:45:19;;;;;;;6.65;4.65;;;;;;;28.59;48.31;98103.31;5020225;27;102628;-67
2021/07/30 10:47:47;;;;;;;4.18;3.88;;;;;;;29.04;48.01;98096.09;5018528;28;103875;-66
2021/07/30 10:50:44;;;;;;;4.95;4.50;;;;;;;27.80;49.35;98110.16;5019700;28;103214;-66
2021/07/30 10:53:44;;;;;;;4.32;3.88;;;;;;;28.02;49.28;98097.66;5018601;28;102614;-66
2021/07/30 10:56:44;;;;;;;5.05;4.65;;;;;;;28.09;49.39;98098.44;5019870;28;102998;-66
2021/07/30 10:59:14;;;;;;;6.18;4.20;;;;;;;28.82;47.56;98097.03;4960998;28;104739;-66
2021/07/30 11:02:00;;;;;;;5.28;4.65;;;;;;;29.53;46.43;98086.41;5017269;28;103235;-67
2021/07/30 11:04:30;;;;;;;5.00;4.38;;;;;;;29.48;46.17;98082.78;5018772;28;102633;-66
2021/07/30 11:06:59;;;;;;;4.70;4.30;;;;;;;29.68;46.78;98080.41;5018228;28;102877;-66
2021/07/30 11:09:37;;;;;;;4.63;4.20;;;;;;;28.60;48.70;98083.22;4992926;28;103521;-66
2021/07/30 11:12:12;;;;;;;6.20;5.18;;;;;;;28.44;47.79;98078.53;4970516;28;104739;-67
2021/07/30 11:14:45;;;;;;;5.43;4.93;;;;;;;29.51;46.13;98079.56;4971549;28;102559;-66
2021/07/30 11:17:14;;;;;;;4.38;4.07;;;;;;;30.06;45.97;98075.06;4990748;28;104303;-67
2021/07/30 11:19:46;;;;;;;4.43;4.05;;;;;;;30.10;46.59;98078.91;4994082;28;103351;-67
2021/07/30 11:22:17;;;;;;;5.32;4.10;;;;;;;30.58;45.31;98069.22;4991279;28;104620;-66
2021/07/30 11:24:47;;;;;;;4.65;4.25;;;;;;;30.14;45.64;98074.63;4972781;28;102960;-67
2021/07/30 11:27:17;;;;;;;6.70;4.53;;;;;;;29.17;45.44;98065.88;4981084;28;102833;-66
2021/07/30 11:29:48;;;;;;;5.88;4.57;;;;;;;29.42;46.28;98062.00;4987177;28;103392;-67
2021/07/30 11:32:18;;;;;;;4.70;4.30;;;;;;;29.52;47.14;98070.34;4992247;28;103110;-67
2021/07/30 11:34:48;;;;;;;4.30;4.00;;;;;;;30.55;46.13;98053.38;4993308;28;102620;-66
2021/07/30 11:37:17;;;;;;;4.40;4.00;;;;;;;30.80;44.13;98040.06;4992877;28;102861;-67
2021/07/30 11:39:47;;;;;;;5.05;4.55;;;;;;;30.98;44.63;98037.84;4993448;28;103367;-67
2021/07/30 11:42:23;;;;;;;4.28;3.88;;;;;;;30.84;44.41;98035.75;4987218;28;103399;-67
2021/07/30 11:44:55;;;;;;;4.53;4.13;;;;;;;31.14;44.53;98030.63;4990297;28;102870;-66
2021/07/30 11:47:25;;;;;;;5.25;4.75;;;;;;;31.57;43.69;98040.59;4987884;28;102653;-67
2021/07/30 11:50:03;;;;;;;5.00;4.60;;;;;;;31.77;43.58;98040.75;4987972;28;104473;-67
2021/07/30 11:52:31;;;;;;;4.20;3.90;;;;;;;31.18;43.87;98036.41;4971993;28;103993;-66
2021/07/30 11:55:15;;;;;;;4.18;3.75;;;;;;;31.88;42.33;98028.00;4976420;28;103148;-67
2021/07/30 11:57:45;;;;;;;5.53;5.03;;;;;;;31.35;43.33;98029.75;4995559;28;102610;-67
2021/07/30 12:00:24;;;;;;;4.32;4.00;;;;;;;31.40;42.55;98029.78;4998642;28;103393;-67
2021/07/30 12:02:52;;;;;;;5.07;4.68;;;;;;;31.69;43.38;98013.13;4992458;28;103211;-67
2021/07/30 12:05:31;;;;;;;5.10;4.70;;;;;;;31.88;41.27;98004.25;4995504;28;102665;-65
2021/07/30 12:08:00;;;;;;;6.53;4.32;;;;;;;30.68;44.42;98004.75;5004849;28;102629;-68
2021/07/30 12:10:29;;;;;;;7.43;5.13;;;;;;;30.27;43.71;98008.88;5018512;28;103454;-66
2021/07/30 12:12:59;;;;;;;5.03;4.60;;;;;;;29.69;45.12;98014.00;5019923;28;103317;-67
2021/07/30 12:15:30;;;;;;;5.00;4.60;;;;;;;30.57;45.87;98007.66;5019770;27;102553;-67
2021/07/30 12:18:00;;;;;;;4.85;4.43;;;;;;;29.46;46.02;98017.72;5020053;28;102820;-67
2021/07/30 12:20:33;;;;;;;4.20;3.80;;;;;;;30.22;46.72;98005.25;5015851;27;104373;-67
2021/07/30 12:23:06;;;;;;;5.50;4.63;;;;;;;30.90;44.88;98008.28;5018339;28;103280;-67
2021/07/30 12:25:37;;;;;;;7.78;4.50;;;;;;;30.80;43.23;97997.25;5016774;28;103017;-67
2021/07/30 12:28:07;;;;;;;5.10;4.70;;;;;;;30.46;44.47;98003.16;5018509;28;102663;-65
2021/07/30 12:30:39;;;;;;;4.32;3.90;;;;;;;31.29;43.05;97995.31;5020093;27;103234;-65
2021/07/30 12:33:27;;;;;;;4.57;4.15;;;;;;;32.00;43.04;97995.84;4996774;28;103268;-66